Time;durP1;ratioP1;P1;durP2;ratioP2;P2;SDS_P1;SDS_P2;PMS_P1;PMS_P2;Temp;Humidity;BMP_temperature;BMP_pressure;BME280_temperature;BME280_humidity;BME280_pressure;Samples;Min_cycle;Max_cycle;Signal;HPM_P1;HPM_P2
2022/05/29 00:00:41;;;;;;;14.93;5.68;;;11.30;99.90;;;;;;5036304;28;20284;-80
2022/05/29 00:03:07;;;;;;;11.80;5.65;;;11.30;99.90;;;;;;5037233;28;20204;-80
2022/05/29 00:05:35;;;;;;;10.27;5.05;;;11.30;99.90;;;;;;5035728;28;20200;-80
2022/05/29 00:08:02;;;;;;;11.68;5.63;;;11.10;99.90;;;;;;5035169;28;20259;-80
2022/05/29 00:10:29;;;;;;;11.05;5.15;;;11.10;99.90;;;;;;5037543;28;20239;-80
2022/05/29 00:12:56;;;;;;;11.18;5.15;;;11.10;99.90;;;;;;5043022;28;20204;-80
2022/05/29 00:15:23;;;;;;;24.48;9.20;;;11.10;99.90;;;;;;5036291;28;20299;-80
2022/05/29 00:17:52;;;;;;;21.00;6.57;;;11.10;99.90;;;;;;5039408;28;20283;-80
2022/05/29 00:20:19;;;;;;;17.88;5.80;;;11.20;99.90;;;;;;5035291;28;20208;-79
2022/05/29 00:22:46;;;;;;;16.30;5.38;;;11.20;99.90;;;;;;5047307;28;20201;-79
2022/05/29 00:25:13;;;;;;;17.27;5.95;;;11.20;99.90;;;;;;5046825;28;20204;-78
2022/05/29 00:27:40;;;;;;;15.25;5.47;;;11.20;99.90;;;;;;5047144;28;20489;-80
2022/05/29 00:30:12;;;;;;;13.05;5.10;;;11.30;99.90;;;;;;5042046;28;20208;-78
2022/05/29 00:32:39;;;;;;;12.82;4.50;;;11.30;99.90;;;;;;5037334;28;20236;-79
2022/05/29 00:35:08;;;;;;;14.30;5.30;;;11.30;99.90;;;;;;5039958;28;20264;-81
2022/05/29 00:37:37;;;;;;;11.88;4.57;;;11.30;99.90;;;;;;5039957;28;20649;-78
2022/05/29 00:40:15;;;;;;;19.35;7.00;;;11.40;99.90;;;;;;5041339;28;20291;-78
2022/05/29 00:42:41;;;;;;;12.43;4.82;;;11.30;99.90;;;;;;5035110;28;20279;-80
2022/05/29 00:45:15;;;;;;;17.33;4.97;;;11.30;99.90;;;;;;5029137;28;20208;-81
2022/05/29 00:47:41;;;;;;;9.32;5.00;;;11.50;99.90;;;;;;5041624;28;20224;-78
2022/05/29 00:50:10;;;;;;;26.80;5.63;;;11.40;99.90;;;;;;5037572;28;20219;-80
2022/05/29 00:52:38;;;;;;;9.32;4.10;;;11.40;99.90;;;;;;5037394;28;20219;-80
2022/05/29 00:55:11;;;;;;;14.68;5.00;;;11.40;99.90;;;;;;5035825;28;20320;-80
2022/05/29 00:57:43;;;;;;;9.00;4.15;;;11.40;99.90;;;;;;5037763;28;20216;-80
2022/05/29 01:00:14;;;;;;;11.65;5.10;;;11.40;99.90;;;;;;5036523;28;20736;-80
2022/05/29 01:02:41;;;;;;;17.98;5.88;;;11.40;99.90;;;;;;5038192;28;20197;-80
2022/05/29 01:05:13;;;;;;;10.02;4.25;;;11.40;99.90;;;;;;5037142;28;20205;-80
2022/05/29 01:07:42;;;;;;;13.80;6.45;;;11.40;99.90;;;;;;5037739;28;20213;-80
2022/05/29 01:10:10;;;;;;;6.70;3.00;;;11.40;99.90;;;;;;5037448;28;20714;-80
2022/05/29 01:12:43;;;;;;;12.40;5.15;;;11.40;99.90;;;;;;5038709;28;20201;-80
2022/05/29 01:15:21;;;;;;;14.65;6.25;;;11.40;99.90;;;;;;5041783;28;20306;-79
2022/05/29 01:17:55;;;;;;;9.15;4.07;;;11.40;99.90;;;;;;5039938;28;20252;-79
2022/05/29 01:20:38;;;;;;;17.73;6.28;;;11.40;99.90;;;;;;5034952;28;20214;-80
2022/05/29 01:23:29;;;;;;;9.75;3.85;;;11.40;99.90;;;;;;5041508;28;20196;-79
2022/05/29 01:26:38;;;;;;;12.27;4.90;;;11.40;99.90;;;;;;5045277;28;20272;-80
2022/05/29 01:29:07;;;;;;;8.38;3.92;;;11.40;99.90;;;;;;5041466;28;20268;-79
2022/05/29 01:31:44;;;;;;;10.07;3.75;;;11.40;99.90;;;;;;5043539;28;20226;-81
2022/05/29 01:34:24;;;;;;;11.40;4.25;;;11.40;99.90;;;;;;5052970;28;20199;-78
2022/05/29 01:37:01;;;;;;;11.38;4.07;;;11.40;99.90;;;;;;5055521;28;20200;-79
2022/05/29 01:39:32;;;;;;;10.77;3.88;;;11.40;99.90;;;;;;5055617;28;20221;-78
2022/05/29 01:42:05;;;;;;;12.80;4.18;;;11.40;99.90;;;;;;5046165;28;20229;-80
2022/05/29 01:44:43;;;;;;;11.52;4.40;;;11.40;99.90;;;;;;5053101;28;20185;-79
2022/05/29 01:47:15;;;;;;;11.73;4.70;;;11.50;99.90;;;;;;5052680;28;20223;-79
2022/05/29 01:49:47;;;;;;;12.95;3.88;;;11.40;99.90;;;;;;5056391;28;20255;-79
2022/05/29 01:52:18;;;;;;;15.27;7.45;;;11.40;99.90;;;;;;5056828;28;20272;-79
2022/05/29 01:54:51;;;;;;;13.00;3.47;;;11.40;99.90;;;;;;5041101;28;20224;-79
2022/05/29 01:57:23;;;;;;;13.73;4.45;;;11.40;99.90;;;;;;5042187;28;20200;-79
2022/05/29 01:59:56;;;;;;;4.63;2.97;;;11.40;99.90;;;;;;5045429;28;20306;-79
2022/05/29 02:02:27;;;;;;;7.80;4.20;;;11.40;99.90;;;;;;5048738;28;20224;-79
2022/05/29 02:04:59;;;;;;;14.02;4.60;;;11.50;99.90;;;;;;5049542;28;20251;-80
2022/05/29 02:10:21;;;;;;;10.82;4.00;;;11.50;99.90;;;;;;5037886;28;20207;-80
2022/05/29 02:12:55;;;;;;;10.23;4.68;;;11.50;99.90;;;;;;5040678;28;20207;-79
2022/05/29 02:15:30;;;;;;;9.48;3.63;;;11.50;99.90;;;;;;5041436;28;20211;-79
2022/05/29 02:18:00;;;;;;;6.90;2.72;;;11.50;99.90;;;;;;5043092;28;20291;-79
2022/05/29 02:20:31;;;;;;;14.80;5.20;;;11.50;99.90;;;;;;5045855;28;20231;-79
2022/05/29 02:23:10;;;;;;;11.00;4.47;;;11.50;99.90;;;;;;5036268;28;20295;-79
2022/05/29 02:25:38;;;;;;;10.13;3.72;;;11.50;99.90;;;;;;5041738;28;20194;-80
2022/05/29 02:28:10;;;;;;;10.30;3.80;;;11.50;99.90;;;;;;5042529;28;20650;-79
2022/05/29 02:30:46;;;;;;;19.08;4.20;;;11.50;99.90;;;;;;5039405;28;20212;-79
2022/05/29 02:33:24;;;;;;;11.85;3.70;;;11.40;99.90;;;;;;5041432;28;20196;-79
2022/05/29 02:36:19;;;;;;;8.85;3.17;;;11.40;99.90;;;;;;5039412;28;20204;-79
2022/05/29 02:38:54;;;;;;;16.90;4.30;;;11.40;99.90;;;;;;5033764;28;20221;-79
2022/05/29 02:41:27;;;;;;;11.13;4.28;;;11.40;99.90;;;;;;5039364;28;20196;-79
2022/05/29 02:44:01;;;;;;;8.70;2.85;;;11.40;99.90;;;;;;5039142;28;20201;-79
2022/05/29 02:46:34;;;;;;;8.48;3.13;;;11.50;99.90;;;;;;5038160;28;20207;-80
2022/05/29 02:49:07;;;;;;;10.85;3.42;;;11.40;99.90;;;;;;5038653;28;20228;-79
2022/05/29 02:51:40;;;;;;;12.13;3.70;;;11.50;99.90;;;;;;5045315;28;20224;-80
2022/05/29 02:54:11;;;;;;;6.32;3.28;;;11.50;99.90;;;;;;5039133;28;20201;-78
2022/05/29 02:56:38;;;;;;;9.88;3.10;;;11.50;99.90;;;;;;5036340;28;20210;-79
2022/05/29 02:59:06;;;;;;;8.90;3.50;;;11.40;99.90;;;;;;5039612;28;20311;-79
2022/05/29 03:01:43;;;;;;;11.27;3.22;;;11.40;99.90;;;;;;5038391;28;20205;-79
2022/05/29 03:04:29;;;;;;;6.50;3.13;;;11.30;99.90;;;;;;5049705;28;20695;-79
2022/05/29 03:07:04;;;;;;;8.52;4.43;;;11.40;99.90;;;;;;5040066;28;20216;-80
2022/05/29 03:09:42;;;;;;;13.23;3.33;;;11.40;99.90;;;;;;5035757;28;20244;-80
2022/05/29 03:12:18;;;;;;;14.18;3.97;;;11.40;99.90;;;;;;5038645;28;20578;-80
2022/05/29 03:14:50;;;;;;;14.02;3.75;;;11.40;99.90;;;;;;5034409;28;20585;-79
2022/05/29 03:17:32;;;;;;;14.50;3.85;;;11.40;99.90;;;;;;5037318;28;21400;-80
2022/05/29 03:20:07;;;;;;;14.23;3.72;;;11.40;99.90;;;;;;5043805;28;20245;-79
2022/05/29 03:22:44;;;;;;;15.43;3.90;;;11.40;99.90;;;;;;5052208;28;20190;-79
2022/05/29 03:25:18;;;;;;;12.65;4.97;;;11.40;99.90;;;;;;5059058;28;20262;-79
2022/05/29 03:27:47;;;;;;;10.38;4.40;;;11.40;99.90;;;;;;5057657;28;20204;-79
2022/05/29 03:30:19;;;;;;;8.32;3.65;;;11.40;99.90;;;;;;5057092;28;20184;-79
2022/05/29 03:32:51;;;;;;;15.63;4.25;;;11.40;99.90;;;;;;5057677;28;20192;-79
2022/05/29 03:35:23;;;;;;;14.52;4.70;;;11.40;99.90;;;;;;5056924;28;20199;-79
2022/05/29 03:37:50;;;;;;;14.70;4.63;;;11.40;99.90;;;;;;5043404;28;20260;-79
2022/05/29 03:40:17;;;;;;;13.25;3.60;;;11.40;99.90;;;;;;5039533;28;20288;-80
2022/05/29 03:42:44;;;;;;;18.52;5.75;;;11.50;99.90;;;;;;5038971;28;20201;-80
2022/05/29 03:45:12;;;;;;;16.95;4.82;;;11.50;99.90;;;;;;5046720;28;20291;-79
2022/05/29 03:47:39;;;;;;;15.02;4.68;;;11.50;99.90;;;;;;5042166;28;20279;-79
2022/05/29 03:50:10;;;;;;;30.10;5.10;;;11.60;99.90;;;;;;5042059;28;20214;-79
2022/05/29 03:52:38;;;;;;;16.50;4.35;;;11.60;99.90;;;;;;5036398;28;20284;-79
2022/05/29 03:55:05;;;;;;;12.68;4.47;;;11.60;99.90;;;;;;5037690;28;20688;-80
2022/05/29 03:57:32;;;;;;;17.30;6.32;;;11.50;99.90;;;;;;5040091;28;20680;-80
2022/05/29 03:59:59;;;;;;;19.30;4.68;;;11.60;99.90;;;;;;5035842;28;20239;-80
2022/05/29 04:02:26;;;;;;;13.43;4.93;;;11.60;99.90;;;;;;5037146;28;20292;-80
2022/05/29 04:04:54;;;;;;;12.80;4.65;;;11.60;99.90;;;;;;5036106;28;20303;-80
2022/05/29 04:12:03;;;;;;;10.07;4.00;;;11.70;99.90;;;;;;5038281;28;20210;-80
2022/05/29 04:12:55;;;;;;;18.15;6.60;;;11.90;99.90;;;;;;5017170;28;20197;-79
2022/05/29 04:15:22;;;;;;;12.30;4.50;;;11.90;99.90;;;;;;5044517;28;20228;-79
2022/05/29 04:17:48;;;;;;;9.90;3.55;;;12.00;99.90;;;;;;5046964;28;20260;-79
2022/05/29 04:20:15;;;;;;;10.00;4.30;;;12.00;99.90;;;;;;5044884;28;20238;-79
2022/05/29 04:22:44;;;;;;;8.57;4.38;;;11.90;99.90;;;;;;5037365;28;20209;-79
2022/05/29 04:25:11;;;;;;;17.75;3.85;;;11.90;99.90;;;;;;5035654;28;20545;-79
2022/05/29 04:27:38;;;;;;;13.00;5.10;;;11.90;99.90;;;;;;5036095;28;20285;-79
2022/05/29 04:30:06;;;;;;;12.85;3.72;;;11.90;99.90;;;;;;5034203;28;20227;-79
2022/05/29 04:35:18;;;;;;;14.88;4.63;;;11.90;99.90;;;;;;5038596;28;20208;-81
2022/05/29 04:37:46;;;;;;;12.02;5.55;;;11.80;99.90;;;;;;5033028;28;20361;-80
2022/05/29 04:40:14;;;;;;;14.27;4.97;;;11.80;99.90;;;;;;5038947;28;20209;-80
2022/05/29 04:42:41;;;;;;;12.48;4.05;;;11.90;99.90;;;;;;5034964;28;20207;-80
2022/05/29 04:45:10;;;;;;;20.05;5.20;;;11.90;99.90;;;;;;5036758;28;20204;-80
2022/05/29 04:47:37;;;;;;;12.90;3.70;;;11.90;99.90;;;;;;5037651;28;20680;-80
2022/05/29 04:50:04;;;;;;;16.10;4.38;;;12.00;99.90;;;;;;5034546;28;20225;-80
2022/05/29 04:52:31;;;;;;;17.50;4.30;;;12.00;99.90;;;;;;5037096;28;20269;-79
2022/05/29 04:54:59;;;;;;;10.05;3.85;;;12.00;99.90;;;;;;5032779;28;20202;-80
2022/05/29 04:57:27;;;;;;;13.20;3.55;;;12.00;99.90;;;;;;5030965;28;20261;-80
2022/05/29 04:59:55;;;;;;;13.48;4.30;;;12.00;99.90;;;;;;5047688;28;20213;-79
2022/05/29 05:02:22;;;;;;;13.05;5.43;;;12.10;99.90;;;;;;5044980;28;20202;-81
2022/05/29 05:04:48;;;;;;;7.80;3.80;;;12.10;99.90;;;;;;5044803;28;20211;-80
2022/05/29 05:07:16;;;;;;;13.45;4.65;;;12.10;99.90;;;;;;5037650;28;20276;-79
2022/05/29 05:09:43;;;;;;;7.97;3.55;;;12.10;99.90;;;;;;5041772;28;20238;-78
2022/05/29 05:12:12;;;;;;;10.15;4.15;;;12.10;99.90;;;;;;5044805;28;20207;-80
2022/05/29 05:14:39;;;;;;;13.93;4.18;;;12.20;99.90;;;;;;5053967;28;20267;-79
2022/05/29 05:17:06;;;;;;;11.32;4.32;;;12.20;99.90;;;;;;5036620;28;20210;-80
2022/05/29 05:19:33;;;;;;;11.10;3.75;;;12.30;99.90;;;;;;5042640;28;20305;-79
2022/05/29 05:22:01;;;;;;;12.10;4.72;;;12.30;99.90;;;;;;5041689;28;20207;-80
2022/05/29 05:24:28;;;;;;;15.30;3.83;;;12.30;99.90;;;;;;5036360;28;20279;-80
2022/05/29 05:26:58;;;;;;;8.55;4.88;;;12.30;99.90;;;;;;5040856;28;20202;-80
2022/05/29 05:29:27;;;;;;;12.20;3.75;;;12.30;99.90;;;;;;5040748;28;20226;-80
2022/05/29 05:31:53;;;;;;;13.35;5.10;;;12.30;99.90;;;;;;5040953;28;20213;-80
2022/05/29 05:34:20;;;;;;;17.20;4.75;;;12.40;99.90;;;;;;5049432;28;20214;-79
2022/05/29 05:36:47;;;;;;;10.05;4.13;;;12.30;99.90;;;;;;5035606;28;20588;-79
2022/05/29 05:39:14;;;;;;;4.78;2.58;;;12.20;99.90;;;;;;5033758;28;20627;-79
2022/05/29 05:41:41;;;;;;;13.48;3.80;;;12.30;99.90;;;;;;5039950;28;20241;-79
2022/05/29 05:44:08;;;;;;;13.23;3.80;;;12.30;99.90;;;;;;5033937;28;20277;-80
2022/05/29 05:46:36;;;;;;;12.57;3.63;;;12.30;99.90;;;;;;5042018;28;20233;-80
2022/05/29 05:49:03;;;;;;;8.55;4.03;;;12.20;99.90;;;;;;5047279;28;20302;-79
2022/05/29 05:51:30;;;;;;;8.00;4.82;;;12.30;99.90;;;;;;5030144;28;20210;-80
2022/05/29 05:53:57;;;;;;;14.60;4.32;;;12.20;99.90;;;;;;5036913;28;20209;-80
2022/05/29 05:56:24;;;;;;;11.38;5.22;;;12.20;99.90;;;;;;5034985;28;20209;-81
2022/05/29 05:58:50;;;;;;;12.70;4.78;;;12.30;99.90;;;;;;5040909;28;20224;-80
2022/05/29 06:01:18;;;;;;;14.27;4.40;;;12.30;99.90;;;;;;5039766;28;20206;-80
2022/05/29 06:03:47;;;;;;;14.07;3.80;;;12.40;99.90;;;;;;5046769;28;20229;-80
2022/05/29 06:06:14;;;;;;;12.98;4.78;;;12.40;99.90;;;;;;5039189;28;20664;-79
2022/05/29 06:08:40;;;;;;;11.73;4.25;;;12.30;99.90;;;;;;5038771;28;20224;-79
2022/05/29 06:11:07;;;;;;;10.55;4.03;;;12.30;99.90;;;;;;5040039;28;20226;-80
2022/05/29 06:13:35;;;;;;;13.65;3.63;;;12.20;99.90;;;;;;5047186;28;20207;-79
2022/05/29 06:16:03;;;;;;;17.92;4.40;;;12.20;99.90;;;;;;5051108;28;20274;-80
2022/05/29 06:18:30;;;;;;;10.30;3.60;;;12.30;99.90;;;;;;5041643;28;20246;-79
2022/05/29 06:21:00;;;;;;;9.70;3.20;;;12.50;99.90;;;;;;5043390;28;20211;-80
2022/05/29 06:23:27;;;;;;;10.40;4.20;;;12.60;99.90;;;;;;5034717;28;20274;-79
2022/05/29 06:25:54;;;;;;;7.80;2.83;;;12.60;99.90;;;;;;5042063;28;20219;-80
2022/05/29 06:28:21;;;;;;;18.13;4.25;;;12.60;99.90;;;;;;5042587;28;20221;-81
2022/05/29 06:30:48;;;;;;;10.32;4.35;;;12.70;99.90;;;;;;5035389;28;20206;-78
2022/05/29 06:33:16;;;;;;;7.30;3.15;;;12.60;99.90;;;;;;5058371;28;20232;-78
2022/05/29 06:35:45;;;;;;;11.27;3.00;;;12.50;99.90;;;;;;5057206;28;20186;-79
2022/05/29 06:38:13;;;;;;;12.15;3.10;;;12.50;99.90;;;;;;5050673;28;20245;-78
2022/05/29 06:40:42;;;;;;;16.80;3.38;;;12.50;99.90;;;;;;5052292;28;20251;-79
2022/05/29 06:43:09;;;;;;;10.30;3.28;;;12.50;99.90;;;;;;5057645;28;20258;-77
2022/05/29 06:45:36;;;;;;;15.25;3.15;;;12.60;99.90;;;;;;5052384;28;20187;-80
2022/05/29 06:48:03;;;;;;;5.18;2.50;;;12.60;99.90;;;;;;5044928;28;20231;-79
2022/05/29 06:50:30;;;;;;;12.48;3.15;;;12.70;99.90;;;;;;5040844;28;20262;-79
2022/05/29 06:52:57;;;;;;;8.25;3.08;;;12.70;99.90;;;;;;5053935;28;20280;-79
2022/05/29 06:55:26;;;;;;;20.15;4.00;;;12.60;99.90;;;;;;5041801;28;20206;-79
2022/05/29 06:57:52;;;;;;;17.80;3.67;;;12.60;99.90;;;;;;5049936;28;20223;-79
2022/05/29 07:08:40;;;;;;;16.25;3.25;;;12.50;99.90;;;;;;5037852;28;20284;-81
2022/05/29 07:11:11;;;;;;;11.80;4.22;;;12.50;99.90;;;;;;5051098;28;20209;-80
2022/05/29 07:13:38;;;;;;;12.75;3.35;;;12.50;99.90;;;;;;5044798;28;20215;-81
2022/05/29 07:16:05;;;;;;;8.93;2.92;;;12.40;99.90;;;;;;5036995;28;20211;-80
2022/05/29 07:18:33;;;;;;;10.38;3.45;;;12.40;99.90;;;;;;5049164;28;20258;-79
2022/05/29 07:21:01;;;;;;;7.95;3.40;;;12.40;99.90;;;;;;5049111;28;20218;-80
2022/05/29 07:23:27;;;;;;;20.08;5.97;;;12.30;99.90;;;;;;5053231;28;20214;-78
2022/05/29 07:25:54;;;;;;;8.52;3.30;;;12.30;99.90;;;;;;5058989;28;20274;-79
2022/05/29 07:28:23;;;;;;;8.35;2.90;;;12.30;99.90;;;;;;5056062;28;20259;-80
2022/05/29 07:30:51;;;;;;;13.60;3.53;;;12.40;99.90;;;;;;5055774;28;20233;-79
2022/05/29 07:33:18;;;;;;;12.40;3.63;;;12.40;99.90;;;;;;5054443;28;20329;-81
2022/05/29 07:35:45;;;;;;;7.75;3.40;;;12.40;99.90;;;;;;5066055;28;20238;-80
2022/05/29 07:38:12;;;;;;;9.40;3.10;;;12.60;99.90;;;;;;5056827;28;20223;-80
2022/05/29 07:40:39;;;;;;;8.25;3.40;;;12.60;99.90;;;;;;5054710;28;20203;-80
2022/05/29 07:43:19;;;;;;;6.43;2.92;;;12.70;99.90;;;;;;5054884;28;20206;-80
2022/05/29 07:45:48;;;;;;;7.20;2.92;;;12.60;99.90;;;;;;5055086;28;20262;-79
2022/05/29 07:48:15;;;;;;;7.38;3.10;;;12.60;99.90;;;;;;5054434;28;20303;-79
2022/05/29 07:50:42;;;;;;;11.32;3.92;;;12.70;99.90;;;;;;5055703;28;20225;-80
2022/05/29 07:53:09;;;;;;;12.80;3.78;;;12.70;99.90;;;;;;5054746;28;20210;-80
2022/05/29 07:55:37;;;;;;;11.65;3.08;;;12.70;99.90;;;;;;5068399;28;20265;-80
2022/05/29 07:58:04;;;;;;;16.38;4.78;;;12.70;99.90;;;;;;5056137;28;20227;-78
2022/05/29 08:00:32;;;;;;;10.50;4.68;;;12.60;99.90;;;;;;5055422;28;20217;-78
2022/05/29 08:03:00;;;;;;;7.00;4.32;;;12.60;99.90;;;;;;5056025;28;20210;-78
2022/05/29 08:05:29;;;;;;;7.78;4.05;;;12.50;99.90;;;;;;5057147;28;20232;-79
2022/05/29 08:07:57;;;;;;;12.10;3.85;;;12.40;99.90;;;;;;5055828;28;20239;-80
2022/05/29 08:12:52;;;;;;;8.85;3.58;;;12.30;99.90;;;;;;5006786;28;20212;-71
2022/05/29 08:15:19;;;;;;;7.88;3.45;;;12.50;99.90;;;;;;5005414;28;20224;-69
2022/05/29 08:17:47;;;;;;;8.35;3.00;;;12.50;99.90;;;;;;5004718;28;20306;-68
2022/05/29 08:20:19;;;;;;;5.20;2.85;;;12.70;99.90;;;;;;5003711;28;20286;-68
2022/05/29 08:22:46;;;;;;;16.88;3.20;;;12.80;99.90;;;;;;5002328;28;20215;-68
2022/05/29 08:30:51;;;;;;;9.43;3.72;;;12.80;99.90;;;;;;5008620;28;20219;-68
2022/05/29 08:33:20;;;;;;;17.08;5.40;;;12.80;99.90;;;;;;5004911;28;20647;-68
2022/05/29 08:35:53;;;;;;;13.82;4.78;;;12.80;99.90;;;;;;5006947;28;20263;-68
2022/05/29 08:38:21;;;;;;;8.55;3.95;;;12.80;99.90;;;;;;5006357;28;20197;-68
2022/05/29 08:40:50;;;;;;;10.90;4.43;;;12.90;99.90;;;;;;5014958;28;20211;-68
2022/05/29 08:43:28;;;;;;;11.85;3.67;;;13.10;99.90;;;;;;5009490;28;20730;-67
2022/05/29 08:45:54;;;;;;;5.07;4.00;;;13.30;99.90;;;;;;5004184;28;20307;-71
2022/05/29 08:48:26;;;;;;;8.27;3.60;;;13.20;99.90;;;;;;5002371;28;20663;-69
2022/05/29 08:51:08;;;;;;;7.63;3.17;;;13.10;99.90;;;;;;5004139;28;20239;-67
2022/05/29 08:53:45;;;;;;;3.53;2.60;;;13.10;99.90;;;;;;5003713;28;20656;-68
2022/05/29 08:56:19;;;;;;;8.07;3.28;;;13.20;99.90;;;;;;4988645;28;20710;-68
2022/05/29 08:59:03;;;;;;;5.70;2.58;;;13.30;99.90;;;;;;5005160;28;20208;-67
2022/05/29 09:01:41;;;;;;;7.32;2.67;;;13.30;99.90;;;;;;5008692;28;20719;-68
2022/05/29 09:04:14;;;;;;;2.97;2.00;;;13.40;99.90;;;;;;5008501;28;20294;-69
2022/05/29 09:06:45;;;;;;;3.08;1.85;;;13.50;99.90;;;;;;5009364;28;20314;-69
2022/05/29 09:09:19;;;;;;;5.60;2.05;;;13.40;99.90;;;;;;5009984;28;20208;-70
2022/05/29 09:11:51;;;;;;;7.53;3.67;;;13.40;99.90;;;;;;4993116;28;20285;-70
2022/05/29 09:14:23;;;;;;;14.30;6.03;;;13.40;99.90;;;;;;5006034;28;20714;-69
2022/05/29 09:16:58;;;;;;;11.70;5.13;;;13.40;99.90;;;;;;5008877;28;20204;-67
2022/05/29 09:19:34;;;;;;;7.18;4.60;;;13.50;99.90;;;;;;5010674;28;20215;-67
2022/05/29 09:22:11;;;;;;;15.32;5.65;;;13.50;99.90;;;;;;4994404;28;20225;-70
2022/05/29 09:24:53;;;;;;;11.82;3.83;;;13.70;99.90;;;;;;4999111;28;20227;-71
2022/05/29 09:27:21;;;;;;;9.57;3.38;;;13.80;99.90;;;;;;5008918;28;20620;-68
2022/05/29 09:29:50;;;;;;;9.43;2.88;;;13.80;99.90;;;;;;5010612;28;20216;-68
2022/05/29 09:32:20;;;;;;;11.32;3.70;;;13.90;99.90;;;;;;5008863;28;20640;-68
2022/05/29 09:34:58;;;;;;;6.63;2.20;;;14.10;99.90;;;;;;5001117;28;20263;-68
2022/05/29 09:37:42;;;;;;;11.02;2.85;;;14.50;99.90;;;;;;5003454;28;20222;-67
2022/05/29 09:40:16;;;;;;;9.13;3.78;;;14.80;99.90;;;;;;5004822;28;20759;-68
2022/05/29 09:42:53;;;;;;;6.72;3.00;;;15.10;99.90;;;;;;4990402;28;20204;-69
2022/05/29 09:45:30;;;;;;;9.80;3.10;;;15.20;99.90;;;;;;4995602;28;20664;-69
2022/05/29 09:50:49;;;;;;;9.48;3.45;;;15.10;99.90;;;;;;5007828;28;20239;-68
2022/05/29 09:53:20;;;;;;;5.75;2.63;;;14.90;99.90;;;;;;5013727;28;20667;-69
2022/05/29 09:56:00;;;;;;;8.32;2.95;;;14.50;99.90;;;;;;5014585;28;20734;-70
2022/05/29 09:58:38;;;;;;;6.03;2.25;;;14.10;99.90;;;;;;5012096;28;20216;-69
2022/05/29 10:01:09;;;;;;;7.50;3.28;;;14.10;99.90;;;;;;5012474;28;20667;-69
2022/05/29 10:03:55;;;;;;;2.95;2.47;;;13.90;99.90;;;;;;5006807;28;20307;-69
2022/05/29 10:06:29;;;;;;;9.15;2.65;;;13.70;99.90;;;;;;5010257;28;20307;-68
2022/05/29 10:09:17;;;;;;;5.25;1.85;;;13.60;99.90;;;;;;5006782;28;20561;-66
2022/05/29 10:11:47;;;;;;;7.93;2.90;;;13.60;99.90;;;;;;5001735;28;20682;-69
2022/05/29 10:14:35;;;;;;;6.78;3.70;;;13.70;99.90;;;;;;5007563;28;20204;-69
2022/05/29 10:17:07;;;;;;;8.73;3.60;;;13.70;99.90;;;;;;5012021;28;20218;-69
2022/05/29 10:19:37;;;;;;;7.65;4.25;;;13.80;99.90;;;;;;5006484;28;20204;-69
2022/05/29 10:22:12;;;;;;;7.68;4.90;;;14.10;99.90;;;;;;5020205;28;20243;-68
2022/05/29 10:24:41;;;;;;;5.50;2.42;;;14.60;99.90;;;;;;4998918;28;20256;-67
2022/05/29 10:27:13;;;;;;;5.32;2.20;;;15.00;99.90;;;;;;5011726;28;20201;-68
2022/05/29 10:29:43;;;;;;;5.75;2.58;;;15.50;99.90;;;;;;5007420;28;20673;-68
2022/05/29 10:32:27;;;;;;;5.25;2.35;;;15.80;99.90;;;;;;5010045;28;20258;-68
2022/05/29 10:35:28;;;;;;;5.30;2.50;;;16.20;99.90;;;;;;4997009;28;20236;-69
2022/05/29 10:37:56;;;;;;;6.32;2.72;;;16.30;99.90;;;;;;5008506;28;20685;-68
2022/05/29 10:40:28;;;;;;;5.05;2.25;;;16.00;99.90;;;;;;5013697;28;20200;-68
2022/05/29 10:43:05;;;;;;;4.57;1.80;;;16.00;99.90;;;;;;5008200;28;20229;-67
2022/05/29 10:45:35;;;;;;;4.78;2.33;;;16.10;99.90;;;;;;5008513;28;20224;-69
2022/05/29 10:48:19;;;;;;;4.38;1.80;;;16.10;99.90;;;;;;5011171;28;20218;-69
2022/05/29 10:51:09;;;;;;;1.90;1.33;;;16.00;99.90;;;;;;4987381;28;20241;-69
2022/05/29 10:53:53;;;;;;;3.90;1.90;;;15.80;99.90;;;;;;5002661;28;20643;-69
2022/05/29 10:56:31;;;;;;;5.10;1.63;;;15.40;99.90;;;;;;5014001;28;20271;-69
2022/05/29 10:59:18;;;;;;;8.15;2.17;;;15.30;99.90;;;;;;4993624;28;20227;-69
2022/05/29 11:04:53;;;;;;;6.10;1.55;;;14.80;99.90;;;;;;5011462;28;20239;-70
2022/05/29 11:07:40;;;;;;;2.05;1.13;;;14.80;99.90;;;;;;5010817;28;20288;-69
2022/05/29 11:10:36;;;;;;;6.22;1.75;;;14.80;99.90;;;;;;5011516;28;20687;-68
2022/05/29 11:13:22;;;;;;;4.00;1.80;;;14.80;99.90;;;;;;5008357;28;20804;-68
2022/05/29 11:15:59;;;;;;;4.60;1.60;;;14.70;99.90;;;;;;5012794;28;20248;-69
2022/05/29 11:19:01;;;;;;;4.15;2.15;;;14.70;99.90;;;;;;4993316;28;20548;-69
2022/05/29 11:21:44;;;;;;;4.47;2.00;;;14.80;99.90;;;;;;4995465;28;20219;-68
2022/05/29 11:24:44;;;;;;;5.32;2.03;;;14.90;99.90;;;;;;5016927;28;20244;-69
2022/05/29 11:27:32;;;;;;;5.38;2.70;;;15.20;99.90;;;;;;5000360;28;20193;-68
2022/05/29 11:30:09;;;;;;;6.97;2.50;;;15.60;99.90;;;;;;5009738;28;20230;-69
2022/05/29 11:32:53;;;;;;;3.40;2.22;;;15.70;99.90;;;;;;5009294;28;20228;-70
2022/05/29 11:35:35;;;;;;;4.60;1.95;;;16.10;99.90;;;;;;5011864;28;20625;-70
2022/05/29 11:38:33;;;;;;;2.70;1.80;;;16.20;99.90;;;;;;4992840;28;20241;-70
2022/05/29 11:41:05;;;;;;;4.35;1.63;;;16.50;99.90;;;;;;5000802;28;20205;-71
2022/05/29 11:43:39;;;;;;;4.10;1.40;;;16.50;99.90;;;;;;5000243;28;20721;-71
2022/05/29 11:51:55;;;;;;;3.33;1.42;;;15.70;99.90;;;;;;5008376;28;20243;-71
2022/05/29 11:54:32;;;;;;;3.30;1.75;;;15.70;99.90;;;;;;5006980;28;20578;-71
2022/05/29 11:57:04;;;;;;;4.55;2.35;;;15.70;99.90;;;;;;5004529;28;20211;-70
2022/05/29 11:59:45;;;;;;;9.45;3.92;;;16.00;99.90;;;;;;5011407;28;20205;-69
2022/05/29 12:02:24;;;;;;;54.20;28.42;;;16.00;99.90;;;;;;5004757;28;20231;-72
2022/05/29 12:04:56;;;;;;;17.58;8.20;;;16.00;99.90;;;;;;4991126;28;20224;-73
2022/05/29 12:07:28;;;;;;;22.17;9.57;;;15.90;99.90;;;;;;5010281;28;20207;-70
2022/05/29 12:10:00;;;;;;;46.40;21.35;;;15.40;99.90;;;;;;5006252;28;20193;-72
2022/05/29 12:12:33;;;;;;;51.15;23.75;;;15.20;99.90;;;;;;5006084;28;20216;-72
2022/05/29 12:15:03;;;;;;;36.47;14.77;;;15.30;99.90;;;;;;4998913;28;20734;-71
2022/05/29 12:17:37;;;;;;;41.00;18.85;;;15.30;99.90;;;;;;5002871;28;20201;-72
2022/05/29 12:20:09;;;;;;;8.50;4.15;;;15.10;99.90;;;;;;4988749;28;20555;-71
2022/05/29 12:22:41;;;;;;;4.40;2.97;;;14.70;99.90;;;;;;5007474;28;20724;-69
2022/05/29 12:25:27;;;;;;;9.80;3.58;;;14.40;99.90;;;;;;5008176;28;20320;-72
2022/05/29 12:27:57;;;;;;;8.77;3.20;;;14.10;99.90;;;;;;5004722;28;20271;-71
2022/05/29 12:30:32;;;;;;;5.50;2.28;;;13.80;99.90;;;;;;5000255;28;20286;-71
2022/05/29 12:33:01;;;;;;;5.95;3.15;;;13.70;99.90;;;;;;5004155;28;20231;-71
2022/05/29 12:35:35;;;;;;;3.67;2.28;;;13.70;99.90;;;;;;5010865;28;20315;-69
2022/05/29 12:38:21;;;;;;;2.55;1.95;;;13.70;99.90;;;;;;5012196;28;20207;-69
2022/05/29 12:41:05;;;;;;;4.80;2.70;;;13.80;99.90;;;;;;5010071;28;20302;-68
2022/05/29 12:44:06;;;;;;;6.07;2.83;;;13.90;99.90;;;;;;5006646;28;20196;-70
2022/05/29 12:46:52;;;;;;;8.32;2.80;;;14.00;99.90;;;;;;5004258;28;20275;-71
2022/05/29 12:49:44;;;;;;;5.50;3.10;;;14.20;99.90;;;;;;5001977;28;20287;-69
2022/05/29 12:52:22;;;;;;;5.18;2.70;;;14.20;99.90;;;;;;5001554;28;20221;-70
2022/05/29 12:55:08;;;;;;;9.40;2.95;;;14.30;99.90;;;;;;5002854;28;20264;-69
2022/05/29 12:58:08;;;;;;;7.80;2.88;;;14.40;99.90;;;;;;4988126;28;20258;-71
2022/05/29 13:00:58;;;;;;;4.47;2.28;;;14.60;99.90;;;;;;4976831;28;20236;-71
2022/05/29 13:03:55;;;;;;;5.72;1.80;;;14.50;99.90;;;;;;5004848;28;20208;-70
2022/05/29 13:06:49;;;;;;;5.10;2.70;;;14.30;99.90;;;;;;5011086;28;20223;-71
2022/05/29 13:09:48;;;;;;;9.15;3.60;;;14.20;99.90;;;;;;4989581;28;20574;-71
2022/05/29 13:12:18;;;;;;;6.95;3.20;;;14.00;99.90;;;;;;4993694;28;20302;-70
2022/05/29 13:14:50;;;;;;;11.27;3.65;;;13.90;99.90;;;;;;5011470;28;20725;-69
2022/05/29 13:17:25;;;;;;;9.57;3.83;;;13.70;99.90;;;;;;5005716;28;20195;-69
2022/05/29 13:20:00;;;;;;;7.88;3.42;;;13.60;99.90;;;;;;5013350;28;20207;-72
2022/05/29 13:22:59;;;;;;;5.50;2.40;;;13.50;99.90;;;;;;5011884;28;20282;-69
2022/05/29 13:25:29;;;;;;;5.40;2.90;;;13.40;99.90;;;;;;5002505;28;20628;-74
2022/05/29 13:27:58;;;;;;;4.10;2.38;;;13.40;99.90;;;;;;5005103;28;20650;-71
2022/05/29 13:31:03;;;;;;;11.20;2.95;;;13.30;99.90;;;;;;5011773;28;20208;-71
2022/05/29 13:33:52;;;;;;;7.40;4.18;;;13.40;99.90;;;;;;5003808;28;20217;-71
2022/05/29 13:37:05;;;;;;;7.25;4.72;;;13.40;99.90;;;;;;5007719;28;20256;-72
2022/05/29 13:39:52;;;;;;;13.55;5.45;;;13.40;99.90;;;;;;5007091;28;20204;-73
2022/05/29 13:42:45;;;;;;;9.25;3.33;;;13.50;99.90;;;;;;5010082;28;20204;-73
2022/05/29 13:45:58;;;;;;;6.45;3.20;;;13.70;99.90;;;;;;4990289;28;20674;-70
2022/05/29 13:48:29;;;;;;;10.88;5.05;;;14.00;99.90;;;;;;5010625;28;20229;-72